X  Stänga Metar väderdata för luftfart     ESNU Umeå Airport
Temperatur
8°C Temperatur
-2°C Daggpunkt
50% Fuktighet



Vind
4 M/S
9 MPH
14 KM/T
8 KTS



360°
N
Nuvarande omständigheter

Mestadels molnigt Mestadels molnigt
Tryck 1000 (hPa) - 29.53 (inHg)
Synlighet 6 (mil) - 9.7 (km)
Flygplats
Flygplatskod ESNU

Plats: Umeå Airport
Distans: 14 (km)

Metar:
ESNU 151150Z 36008KT 340V080 9999 BKN049 08/M02 Q1000

Tid: 2024-04-15 13:50 CEST